logo
Rechercher aéroport 
image banner adimage banner adimage banner ad
image banner ad

SNCS - Campos Sales

Situé à Campos Sales, Brazil

ICAO - SNCS, IATA -

Données fournies par Airmate  

Information générale

Coordonnées: S7°2'58" W40°21'51"
Élévation : 2018 feet MSL.
Variation magnétique : -21.816666667° East
Voir autres Aéroports à Ceará

Données opérationnelles

Special qualification required
Heure actuelle UTC:
Heure actuelle locale:
Météo à : - ( 0 km )
METAR: PAKX 251835Z AUTO 00000KT 10SM SCT010 OVC030 03/01 A2964 RMK AO2
Voir NOTAMs / SUP AIP / TFR affectant cet aéroport [VIEW]
Fréquences de communication: [VIEW]

Pistes:

Identifiant RWYQFULongueur (ft)Largeur (ft)SurfaceLDA (ft)
11393798ASPH
29393798ASPH

Coordonnées de l'aéroport

Adresse: Campos Sales Brazil

Vue satellite de SNCS